sensor_id;sensor_type;location;lat;lon;timestamp;P1;durP1;ratioP1;P2;durP2;ratioP2
77105;SDS011;66057;54.718;18.426;2023-05-10T00:02:06;5.78;;;3.53;;
77105;SDS011;66057;54.718;18.426;2023-05-10T00:04:32;5.38;;;3.65;;
77105;SDS011;66057;54.718;18.426;2023-05-10T00:06:58;6.43;;;3.17;;
77105;SDS011;66057;54.718;18.426;2023-05-10T00:09:24;6.13;;;3.17;;
77105;SDS011;66057;54.718;18.426;2023-05-10T00:11:49;5.30;;;2.95;;
77105;SDS011;66057;54.718;18.426;2023-05-10T00:14:15;4.80;;;2.95;;
77105;SDS011;66057;54.718;18.426;2023-05-10T00:16:41;9.23;;;2.90;;
77105;SDS011;66057;54.718;18.426;2023-05-10T00:19:07;6.68;;;3.00;;
77105;SDS011;66057;54.718;18.426;2023-05-10T00:21:32;7.10;;;2.60;;
77105;SDS011;66057;54.718;18.426;2023-05-10T00:23:59;9.23;;;3.28;;
77105;SDS011;66057;54.718;18.426;2023-05-10T00:26:25;6.65;;;2.53;;
77105;SDS011;66057;54.718;18.426;2023-05-10T00:28:51;5.00;;;2.83;;
77105;SDS011;66057;54.718;18.426;2023-05-10T00:31:16;6.55;;;4.22;;
77105;SDS011;66057;54.718;18.426;2023-05-10T00:33:42;6.57;;;3.35;;
77105;SDS011;66057;54.718;18.426;2023-05-10T00:36:08;7.03;;;3.30;;
77105;SDS011;66057;54.718;18.426;2023-05-10T00:38:34;6.65;;;3.20;;
77105;SDS011;66057;54.718;18.426;2023-05-10T00:40:59;6.82;;;3.25;;
77105;SDS011;66057;54.718;18.426;2023-05-10T00:43:25;7.40;;;2.55;;
77105;SDS011;66057;54.718;18.426;2023-05-10T00:45:51;5.88;;;3.17;;
77105;SDS011;66057;54.718;18.426;2023-05-10T00:53:10;4.78;;;2.45;;
77105;SDS011;66057;54.718;18.426;2023-05-10T00:55:36;6.50;;;2.88;;
77105;SDS011;66057;54.718;18.426;2023-05-10T01:00:28;4.78;;;2.60;;
77105;SDS011;66057;54.718;18.426;2023-05-10T01:07:46;7.93;;;2.63;;
77105;SDS011;66057;54.718;18.426;2023-05-10T01:10:12;5.40;;;2.55;;
77105;SDS011;66057;54.718;18.426;2023-05-10T01:12:38;4.47;;;3.00;;
77105;SDS011;66057;54.718;18.426;2023-05-10T01:15:09;5.90;;;2.60;;
77105;SDS011;66057;54.718;18.426;2023-05-10T01:17:37;6.95;;;2.92;;
77105;SDS011;66057;54.718;18.426;2023-05-10T01:20:06;6.35;;;2.47;;
77105;SDS011;66057;54.718;18.426;2023-05-10T01:36:29;7.00;;;2.65;;
77105;SDS011;66057;54.718;18.426;2023-05-10T01:41:51;5.10;;;2.70;;
77105;SDS011;66057;54.718;18.426;2023-05-10T01:47:05;4.95;;;3.05;;
77105;SDS011;66057;54.718;18.426;2023-05-10T01:49:45;4.95;;;3.03;;
77105;SDS011;66057;54.718;18.426;2023-05-10T01:52:15;4.28;;;2.55;;
77105;SDS011;66057;54.718;18.426;2023-05-10T01:54:46;7.82;;;2.85;;
77105;SDS011;66057;54.718;18.426;2023-05-10T01:57:19;6.53;;;2.33;;
77105;SDS011;66057;54.718;18.426;2023-05-10T01:59:48;5.90;;;2.53;;
77105;SDS011;66057;54.718;18.426;2023-05-10T02:02:15;7.07;;;3.03;;
77105;SDS011;66057;54.718;18.426;2023-05-10T02:04:44;5.55;;;2.78;;
77105;SDS011;66057;54.718;18.426;2023-05-10T02:07:10;6.43;;;2.97;;
77105;SDS011;66057;54.718;18.426;2023-05-10T02:14:32;8.38;;;2.60;;
77105;SDS011;66057;54.718;18.426;2023-05-10T02:17:00;6.38;;;2.35;;
77105;SDS011;66057;54.718;18.426;2023-05-10T02:19:29;3.63;;;2.33;;
77105;SDS011;66057;54.718;18.426;2023-05-10T02:21:57;3.67;;;2.22;;
77105;SDS011;66057;54.718;18.426;2023-05-10T02:24:25;5.82;;;3.03;;
77105;SDS011;66057;54.718;18.426;2023-05-10T02:26:53;4.95;;;2.25;;
77105;SDS011;66057;54.718;18.426;2023-05-10T02:29:22;5.68;;;2.65;;
77105;SDS011;66057;54.718;18.426;2023-05-10T02:31:50;4.10;;;2.53;;
77105;SDS011;66057;54.718;18.426;2023-05-10T02:34:18;8.18;;;2.47;;
77105;SDS011;66057;54.718;18.426;2023-05-10T02:36:46;7.03;;;2.95;;
77105;SDS011;66057;54.718;18.426;2023-05-10T02:39:12;8.32;;;2.75;;
77105;SDS011;66057;54.718;18.426;2023-05-10T02:41:41;6.25;;;2.90;;
77105;SDS011;66057;54.718;18.426;2023-05-10T02:44:08;5.75;;;2.95;;
77105;SDS011;66057;54.718;18.426;2023-05-10T02:46:35;4.72;;;2.78;;
77105;SDS011;66057;54.718;18.426;2023-05-10T02:49:02;5.82;;;2.78;;
77105;SDS011;66057;54.718;18.426;2023-05-10T02:51:28;5.78;;;2.53;;
77105;SDS011;66057;54.718;18.426;2023-05-10T02:54:22;5.55;;;2.92;;
77105;SDS011;66057;54.718;18.426;2023-05-10T02:56:58;4.22;;;3.17;;
77105;SDS011;66057;54.718;18.426;2023-05-10T02:59:29;5.07;;;3.22;;
77105;SDS011;66057;54.718;18.426;2023-05-10T03:01:54;4.88;;;2.75;;
77105;SDS011;66057;54.718;18.426;2023-05-10T03:04:20;6.20;;;3.13;;
77105;SDS011;66057;54.718;18.426;2023-05-10T03:06:46;6.00;;;3.17;;
77105;SDS011;66057;54.718;18.426;2023-05-10T03:09:12;4.40;;;3.05;;
77105;SDS011;66057;54.718;18.426;2023-05-10T03:11:47;6.57;;;3.35;;
77105;SDS011;66057;54.718;18.426;2023-05-10T03:14:25;5.82;;;3.15;;
77105;SDS011;66057;54.718;18.426;2023-05-10T03:17:01;5.63;;;2.95;;
77105;SDS011;66057;54.718;18.426;2023-05-10T03:19:46;8.20;;;3.58;;
77105;SDS011;66057;54.718;18.426;2023-05-10T03:22:19;5.95;;;3.05;;
77105;SDS011;66057;54.718;18.426;2023-05-10T03:24:50;5.85;;;3.35;;
77105;SDS011;66057;54.718;18.426;2023-05-10T03:27:22;11.98;;;3.55;;
77105;SDS011;66057;54.718;18.426;2023-05-10T03:29:50;7.07;;;3.10;;
77105;SDS011;66057;54.718;18.426;2023-05-10T03:32:16;6.97;;;3.35;;
77105;SDS011;66057;54.718;18.426;2023-05-10T03:34:42;9.15;;;3.80;;
77105;SDS011;66057;54.718;18.426;2023-05-10T03:37:09;8.55;;;4.28;;
77105;SDS011;66057;54.718;18.426;2023-05-10T03:39:35;10.18;;;4.40;;
77105;SDS011;66057;54.718;18.426;2023-05-10T03:42:00;5.15;;;3.67;;
77105;SDS011;66057;54.718;18.426;2023-05-10T03:44:26;11.88;;;5.00;;
77105;SDS011;66057;54.718;18.426;2023-05-10T03:46:52;7.55;;;3.58;;
77105;SDS011;66057;54.718;18.426;2023-05-10T03:49:17;5.63;;;3.88;;
77105;SDS011;66057;54.718;18.426;2023-05-10T03:51:43;7.78;;;4.32;;
77105;SDS011;66057;54.718;18.426;2023-05-10T03:54:09;6.65;;;4.35;;
77105;SDS011;66057;54.718;18.426;2023-05-10T03:56:34;8.13;;;3.72;;
77105;SDS011;66057;54.718;18.426;2023-05-10T03:59:00;7.68;;;4.47;;
77105;SDS011;66057;54.718;18.426;2023-05-10T04:01:26;12.70;;;3.95;;
77105;SDS011;66057;54.718;18.426;2023-05-10T04:03:51;8.63;;;4.63;;
77105;SDS011;66057;54.718;18.426;2023-05-10T04:06:17;6.90;;;3.85;;
77105;SDS011;66057;54.718;18.426;2023-05-10T04:08:43;8.00;;;4.57;;
77105;SDS011;66057;54.718;18.426;2023-05-10T04:11:09;7.35;;;4.07;;
77105;SDS011;66057;54.718;18.426;2023-05-10T04:13:36;8.00;;;4.05;;
77105;SDS011;66057;54.718;18.426;2023-05-10T04:16:02;7.22;;;4.03;;
77105;SDS011;66057;54.718;18.426;2023-05-10T04:18:28;6.80;;;4.18;;
77105;SDS011;66057;54.718;18.426;2023-05-10T04:20:53;7.57;;;4.25;;
77105;SDS011;66057;54.718;18.426;2023-05-10T04:23:19;7.57;;;4.40;;
77105;SDS011;66057;54.718;18.426;2023-05-10T04:25:45;6.63;;;3.50;;
77105;SDS011;66057;54.718;18.426;2023-05-10T04:28:11;5.00;;;2.90;;
77105;SDS011;66057;54.718;18.426;2023-05-10T04:30:36;5.25;;;3.20;;
77105;SDS011;66057;54.718;18.426;2023-05-10T04:33:02;5.43;;;3.20;;
77105;SDS011;66057;54.718;18.426;2023-05-10T04:35:28;6.32;;;3.10;;
77105;SDS011;66057;54.718;18.426;2023-05-10T04:37:54;5.63;;;3.10;;
77105;SDS011;66057;54.718;18.426;2023-05-10T04:40:20;6.97;;;3.60;;
77105;SDS011;66057;54.718;18.426;2023-05-10T04:42:45;7.63;;;2.72;;
77105;SDS011;66057;54.718;18.426;2023-05-10T04:45:11;9.93;;;3.53;;
77105;SDS011;66057;54.718;18.426;2023-05-10T04:47:38;6.03;;;2.42;;
77105;SDS011;66057;54.718;18.426;2023-05-10T04:50:03;6.00;;;2.92;;
77105;SDS011;66057;54.718;18.426;2023-05-10T04:52:29;5.13;;;2.63;;
77105;SDS011;66057;54.718;18.426;2023-05-10T04:54:55;4.53;;;2.75;;
77105;SDS011;66057;54.718;18.426;2023-05-10T04:57:21;6.35;;;2.88;;
77105;SDS011;66057;54.718;18.426;2023-05-10T04:59:47;5.47;;;2.72;;
77105;SDS011;66057;54.718;18.426;2023-05-10T05:02:13;5.35;;;3.35;;
77105;SDS011;66057;54.718;18.426;2023-05-10T05:04:38;10.95;;;3.03;;
77105;SDS011;66057;54.718;18.426;2023-05-10T05:07:04;5.80;;;2.75;;
77105;SDS011;66057;54.718;18.426;2023-05-10T05:09:30;6.50;;;3.85;;
77105;SDS011;66057;54.718;18.426;2023-05-10T05:11:57;5.32;;;3.00;;
77105;SDS011;66057;54.718;18.426;2023-05-10T05:14:23;7.43;;;2.65;;
77105;SDS011;66057;54.718;18.426;2023-05-10T05:16:51;5.85;;;3.35;;
77105;SDS011;66057;54.718;18.426;2023-05-10T05:19:17;6.20;;;2.67;;
77105;SDS011;66057;54.718;18.426;2023-05-10T05:21:43;7.82;;;3.00;;
77105;SDS011;66057;54.718;18.426;2023-05-10T05:24:08;4.13;;;2.47;;
77105;SDS011;66057;54.718;18.426;2023-05-10T05:26:35;5.07;;;2.72;;
77105;SDS011;66057;54.718;18.426;2023-05-10T05:29:01;5.57;;;2.78;;
77105;SDS011;66057;54.718;18.426;2023-05-10T05:31:27;6.07;;;3.03;;
77105;SDS011;66057;54.718;18.426;2023-05-10T05:33:53;9.27;;;3.55;;
77105;SDS011;66057;54.718;18.426;2023-05-10T05:36:18;6.47;;;3.00;;
77105;SDS011;66057;54.718;18.426;2023-05-10T05:38:44;4.70;;;2.22;;
77105;SDS011;66057;54.718;18.426;2023-05-10T05:41:10;5.15;;;2.90;;
77105;SDS011;66057;54.718;18.426;2023-05-10T05:43:36;7.47;;;3.15;;
77105;SDS011;66057;54.718;18.426;2023-05-10T05:46:02;7.65;;;3.38;;
77105;SDS011;66057;54.718;18.426;2023-05-10T05:48:29;5.65;;;3.78;;
77105;SDS011;66057;54.718;18.426;2023-05-10T05:50:55;5.32;;;2.20;;
77105;SDS011;66057;54.718;18.426;2023-05-10T05:53:24;7.82;;;3.25;;
77105;SDS011;66057;54.718;18.426;2023-05-10T05:55:53;6.07;;;2.78;;
77105;SDS011;66057;54.718;18.426;2023-05-10T05:58:20;7.80;;;3.53;;
77105;SDS011;66057;54.718;18.426;2023-05-10T06:00:47;5.55;;;2.92;;
77105;SDS011;66057;54.718;18.426;2023-05-10T06:03:12;6.13;;;3.45;;
77105;SDS011;66057;54.718;18.426;2023-05-10T06:05:38;5.57;;;2.78;;
77105;SDS011;66057;54.718;18.426;2023-05-10T06:08:04;5.97;;;3.03;;
77105;SDS011;66057;54.718;18.426;2023-05-10T06:10:30;7.25;;;2.95;;
77105;SDS011;66057;54.718;18.426;2023-05-10T06:12:55;9.82;;;2.75;;
77105;SDS011;66057;54.718;18.426;2023-05-10T06:15:21;5.13;;;3.15;;
77105;SDS011;66057;54.718;18.426;2023-05-10T06:17:47;4.63;;;2.75;;
77105;SDS011;66057;54.718;18.426;2023-05-10T06:20:14;6.03;;;3.17;;
77105;SDS011;66057;54.718;18.426;2023-05-10T06:22:40;28.88;;;4.00;;
77105;SDS011;66057;54.718;18.426;2023-05-10T06:25:07;6.78;;;2.97;;
77105;SDS011;66057;54.718;18.426;2023-05-10T06:27:33;8.43;;;3.45;;
77105;SDS011;66057;54.718;18.426;2023-05-10T06:29:59;6.07;;;2.63;;
77105;SDS011;66057;54.718;18.426;2023-05-10T06:32:25;8.38;;;3.40;;
77105;SDS011;66057;54.718;18.426;2023-05-10T06:34:51;6.57;;;3.17;;
77105;SDS011;66057;54.718;18.426;2023-05-10T06:37:17;9.98;;;3.45;;
77105;SDS011;66057;54.718;18.426;2023-05-10T06:39:43;6.35;;;3.35;;
77105;SDS011;66057;54.718;18.426;2023-05-10T06:42:08;5.30;;;3.42;;
77105;SDS011;66057;54.718;18.426;2023-05-10T06:44:34;8.65;;;3.20;;
77105;SDS011;66057;54.718;18.426;2023-05-10T06:47:00;8.10;;;3.67;;
77105;SDS011;66057;54.718;18.426;2023-05-10T06:49:25;5.15;;;3.17;;
77105;SDS011;66057;54.718;18.426;2023-05-10T06:51:57;7.20;;;3.50;;
77105;SDS011;66057;54.718;18.426;2023-05-10T06:54:23;4.03;;;3.03;;
77105;SDS011;66057;54.718;18.426;2023-05-10T06:56:49;7.93;;;3.70;;
77105;SDS011;66057;54.718;18.426;2023-05-10T06:59:14;9.00;;;4.30;;
77105;SDS011;66057;54.718;18.426;2023-05-10T07:01:47;7.45;;;3.30;;
77105;SDS011;66057;54.718;18.426;2023-05-10T07:04:13;4.55;;;2.90;;
77105;SDS011;66057;54.718;18.426;2023-05-10T07:06:39;8.38;;;3.17;;
77105;SDS011;66057;54.718;18.426;2023-05-10T07:09:04;5.43;;;3.03;;
77105;SDS011;66057;54.718;18.426;2023-05-10T07:11:30;17.10;;;4.63;;
77105;SDS011;66057;54.718;18.426;2023-05-10T07:13:56;6.80;;;3.47;;
77105;SDS011;66057;54.718;18.426;2023-05-10T07:16:22;6.03;;;3.35;;
77105;SDS011;66057;54.718;18.426;2023-05-10T07:18:47;7.30;;;2.72;;
77105;SDS011;66057;54.718;18.426;2023-05-10T07:21:13;8.15;;;2.95;;
77105;SDS011;66057;54.718;18.426;2023-05-10T07:23:39;8.63;;;3.20;;
77105;SDS011;66057;54.718;18.426;2023-05-10T07:26:05;7.38;;;2.75;;
77105;SDS011;66057;54.718;18.426;2023-05-10T07:28:31;3.90;;;2.95;;
77105;SDS011;66057;54.718;18.426;2023-05-10T07:30:57;8.00;;;3.85;;
77105;SDS011;66057;54.718;18.426;2023-05-10T07:33:22;6.75;;;3.33;;
77105;SDS011;66057;54.718;18.426;2023-05-10T07:35:49;5.45;;;3.10;;
77105;SDS011;66057;54.718;18.426;2023-05-10T07:38:15;5.63;;;2.63;;
77105;SDS011;66057;54.718;18.426;2023-05-10T07:40:42;5.38;;;2.95;;
77105;SDS011;66057;54.718;18.426;2023-05-10T07:43:08;7.22;;;2.90;;
77105;SDS011;66057;54.718;18.426;2023-05-10T07:45:35;4.43;;;2.83;;
77105;SDS011;66057;54.718;18.426;2023-05-10T07:48:03;4.75;;;2.90;;
77105;SDS011;66057;54.718;18.426;2023-05-10T07:50:29;6.35;;;3.67;;
77105;SDS011;66057;54.718;18.426;2023-05-10T07:52:55;6.65;;;3.50;;
77105;SDS011;66057;54.718;18.426;2023-05-10T07:55:20;5.38;;;3.20;;
77105;SDS011;66057;54.718;18.426;2023-05-10T07:57:46;5.65;;;3.95;;
77105;SDS011;66057;54.718;18.426;2023-05-10T08:00:13;6.30;;;2.97;;
77105;SDS011;66057;54.718;18.426;2023-05-10T08:02:42;5.97;;;3.47;;
77105;SDS011;66057;54.718;18.426;2023-05-10T08:05:07;5.93;;;3.35;;
77105;SDS011;66057;54.718;18.426;2023-05-10T08:07:33;9.45;;;3.97;;
77105;SDS011;66057;54.718;18.426;2023-05-10T08:09:59;4.65;;;3.10;;
77105;SDS011;66057;54.718;18.426;2023-05-10T08:12:25;7.75;;;3.45;;
77105;SDS011;66057;54.718;18.426;2023-05-10T08:14:50;6.00;;;3.30;;
77105;SDS011;66057;54.718;18.426;2023-05-10T08:17:17;6.65;;;3.60;;
77105;SDS011;66057;54.718;18.426;2023-05-10T08:19:44;5.70;;;3.13;;
77105;SDS011;66057;54.718;18.426;2023-05-10T08:22:09;5.22;;;3.08;;
77105;SDS011;66057;54.718;18.426;2023-05-10T08:24:35;8.90;;;3.55;;
77105;SDS011;66057;54.718;18.426;2023-05-10T08:27:07;5.82;;;2.88;;
77105;SDS011;66057;54.718;18.426;2023-05-10T08:29:33;6.80;;;3.30;;
77105;SDS011;66057;54.718;18.426;2023-05-10T08:31:59;5.78;;;3.28;;
77105;SDS011;66057;54.718;18.426;2023-05-10T08:34:26;6.25;;;3.20;;
77105;SDS011;66057;54.718;18.426;2023-05-10T08:39:17;7.10;;;3.50;;
77105;SDS011;66057;54.718;18.426;2023-05-10T08:41:44;6.55;;;2.90;;
77105;SDS011;66057;54.718;18.426;2023-05-10T08:44:12;6.30;;;2.63;;
77105;SDS011;66057;54.718;18.426;2023-05-10T08:46:38;5.93;;;2.95;;
77105;SDS011;66057;54.718;18.426;2023-05-10T08:49:09;7.55;;;3.30;;
77105;SDS011;66057;54.718;18.426;2023-05-10T08:51:40;4.88;;;2.60;;
77105;SDS011;66057;54.718;18.426;2023-05-10T08:54:09;8.70;;;2.88;;
77105;SDS011;66057;54.718;18.426;2023-05-10T08:56:35;6.03;;;2.95;;
77105;SDS011;66057;54.718;18.426;2023-05-10T08:59:01;6.40;;;2.97;;
77105;SDS011;66057;54.718;18.426;2023-05-10T09:01:27;5.32;;;2.53;;
77105;SDS011;66057;54.718;18.426;2023-05-10T09:03:53;3.78;;;2.15;;
77105;SDS011;66057;54.718;18.426;2023-05-10T09:06:19;6.65;;;2.40;;
77105;SDS011;66057;54.718;18.426;2023-05-10T09:08:45;6.30;;;2.53;;
77105;SDS011;66057;54.718;18.426;2023-05-10T09:11:11;4.03;;;2.53;;
77105;SDS011;66057;54.718;18.426;2023-05-10T09:13:37;3.95;;;2.63;;
77105;SDS011;66057;54.718;18.426;2023-05-10T09:16:04;3.83;;;2.80;;
77105;SDS011;66057;54.718;18.426;2023-05-10T09:18:30;5.03;;;1.65;;
77105;SDS011;66057;54.718;18.426;2023-05-10T09:20:57;4.30;;;1.80;;
77105;SDS011;66057;54.718;18.426;2023-05-10T09:23:23;4.40;;;2.03;;
77105;SDS011;66057;54.718;18.426;2023-05-10T09:26:06;4.82;;;1.90;;
77105;SDS011;66057;54.718;18.426;2023-05-10T09:28:49;4.65;;;2.15;;
77105;SDS011;66057;54.718;18.426;2023-05-10T09:31:42;4.38;;;1.70;;
77105;SDS011;66057;54.718;18.426;2023-05-10T09:34:28;2.65;;;1.85;;
77105;SDS011;66057;54.718;18.426;2023-05-10T09:37:01;4.82;;;2.17;;
77105;SDS011;66057;54.718;18.426;2023-05-10T09:39:38;4.22;;;1.50;;
77105;SDS011;66057;54.718;18.426;2023-05-10T09:42:05;2.78;;;1.63;;
77105;SDS011;66057;54.718;18.426;2023-05-10T09:44:34;4.63;;;2.10;;
77105;SDS011;66057;54.718;18.426;2023-05-10T09:47:01;2.55;;;1.48;;
77105;SDS011;66057;54.718;18.426;2023-05-10T09:49:27;3.53;;;1.73;;
77105;SDS011;66057;54.718;18.426;2023-05-10T09:52:00;2.70;;;1.42;;
77105;SDS011;66057;54.718;18.426;2023-05-10T09:54:29;5.63;;;1.92;;
77105;SDS011;66057;54.718;18.426;2023-05-10T09:56:56;8.32;;;2.55;;
77105;SDS011;66057;54.718;18.426;2023-05-10T09:59:21;3.13;;;1.80;;
77105;SDS011;66057;54.718;18.426;2023-05-10T10:01:51;3.72;;;1.55;;
77105;SDS011;66057;54.718;18.426;2023-05-10T10:04:17;2.65;;;1.33;;
77105;SDS011;66057;54.718;18.426;2023-05-10T10:06:45;3.40;;;1.65;;
77105;SDS011;66057;54.718;18.426;2023-05-10T10:09:11;6.07;;;1.83;;
77105;SDS011;66057;54.718;18.426;2023-05-10T10:11:37;4.45;;;2.05;;
77105;SDS011;66057;54.718;18.426;2023-05-10T10:14:04;3.17;;;1.50;;
77105;SDS011;66057;54.718;18.426;2023-05-10T10:16:30;4.43;;;1.75;;
77105;SDS011;66057;54.718;18.426;2023-05-10T10:18:57;3.45;;;1.95;;
77105;SDS011;66057;54.718;18.426;2023-05-10T10:21:23;2.20;;;1.33;;
77105;SDS011;66057;54.718;18.426;2023-05-10T10:23:49;3.72;;;1.23;;
77105;SDS011;66057;54.718;18.426;2023-05-10T10:26:19;8.07;;;1.60;;
77105;SDS011;66057;54.718;18.426;2023-05-10T10:31:47;4.32;;;1.27;;
77105;SDS011;66057;54.718;18.426;2023-05-10T10:34:27;2.60;;;1.67;;
77105;SDS011;66057;54.718;18.426;2023-05-10T10:36:55;3.20;;;1.52;;
77105;SDS011;66057;54.718;18.426;2023-05-10T10:39:22;3.70;;;1.70;;
77105;SDS011;66057;54.718;18.426;2023-05-10T10:41:54;5.38;;;1.90;;
77105;SDS011;66057;54.718;18.426;2023-05-10T10:49:43;3.72;;;2.25;;
77105;SDS011;66057;54.718;18.426;2023-05-10T10:54:50;1.85;;;1.20;;
77105;SDS011;66057;54.718;18.426;2023-05-10T10:57:18;5.53;;;1.58;;
77105;SDS011;66057;54.718;18.426;2023-05-10T10:59:46;5.10;;;1.40;;
77105;SDS011;66057;54.718;18.426;2023-05-10T11:08:06;3.85;;;1.35;;
77105;SDS011;66057;54.718;18.426;2023-05-10T11:10:33;3.22;;;0.98;;
77105;SDS011;66057;54.718;18.426;2023-05-10T11:13:00;2.35;;;1.17;;
77105;SDS011;66057;54.718;18.426;2023-05-10T11:15:32;2.97;;;1.42;;
77105;SDS011;66057;54.718;18.426;2023-05-10T11:18:02;4.05;;;1.40;;
77105;SDS011;66057;54.718;18.426;2023-05-10T11:20:46;2.55;;;1.55;;
77105;SDS011;66057;54.718;18.426;2023-05-10T11:23:16;3.50;;;1.10;;
77105;SDS011;66057;54.718;18.426;2023-05-10T11:25:43;5.32;;;1.25;;
77105;SDS011;66057;54.718;18.426;2023-05-10T11:28:10;2.95;;;1.58;;
77105;SDS011;66057;54.718;18.426;2023-05-10T11:30:38;3.20;;;1.20;;
77105;SDS011;66057;54.718;18.426;2023-05-10T11:33:05;4.30;;;1.13;;
77105;SDS011;66057;54.718;18.426;2023-05-10T11:35:38;3.38;;;1.30;;
77105;SDS011;66057;54.718;18.426;2023-05-10T11:38:07;3.53;;;1.52;;
77105;SDS011;66057;54.718;18.426;2023-05-10T11:40:36;1.58;;;1.05;;
77105;SDS011;66057;54.718;18.426;2023-05-10T11:43:03;4.15;;;1.33;;
77105;SDS011;66057;54.718;18.426;2023-05-10T11:47:59;7.40;;;1.70;;
77105;SDS011;66057;54.718;18.426;2023-05-10T11:50:25;3.47;;;1.45;;
77105;SDS011;66057;54.718;18.426;2023-05-10T11:52:51;4.78;;;1.30;;
77105;SDS011;66057;54.718;18.426;2023-05-10T11:55:21;3.17;;;1.67;;
77105;SDS011;66057;54.718;18.426;2023-05-10T11:57:47;4.00;;;1.67;;
77105;SDS011;66057;54.718;18.426;2023-05-10T12:00:17;5.85;;;1.45;;
77105;SDS011;66057;54.718;18.426;2023-05-10T12:02:43;2.85;;;1.40;;
77105;SDS011;66057;54.718;18.426;2023-05-10T12:05:08;5.15;;;1.70;;
77105;SDS011;66057;54.718;18.426;2023-05-10T12:07:35;1.63;;;1.35;;
77105;SDS011;66057;54.718;18.426;2023-05-10T12:10:11;2.95;;;1.40;;
77105;SDS011;66057;54.718;18.426;2023-05-10T12:12:43;3.65;;;1.70;;
77105;SDS011;66057;54.718;18.426;2023-05-10T12:15:11;4.35;;;1.30;;
77105;SDS011;66057;54.718;18.426;2023-05-10T12:17:43;2.55;;;1.35;;
77105;SDS011;66057;54.718;18.426;2023-05-10T12:20:13;3.47;;;1.50;;
77105;SDS011;66057;54.718;18.426;2023-05-10T12:22:46;3.33;;;1.42;;
77105;SDS011;66057;54.718;18.426;2023-05-10T12:25:14;4.55;;;1.70;;
77105;SDS011;66057;54.718;18.426;2023-05-10T12:27:41;2.28;;;1.05;;
77105;SDS011;66057;54.718;18.426;2023-05-10T12:30:12;2.80;;;0.98;;
77105;SDS011;66057;54.718;18.426;2023-05-10T12:32:39;5.65;;;1.58;;
77105;SDS011;66057;54.718;18.426;2023-05-10T12:35:05;4.45;;;1.40;;
77105;SDS011;66057;54.718;18.426;2023-05-10T12:37:32;3.25;;;1.02;;
77105;SDS011;66057;54.718;18.426;2023-05-10T12:40:00;3.17;;;1.23;;
77105;SDS011;66057;54.718;18.426;2023-05-10T12:42:28;4.72;;;1.60;;
77105;SDS011;66057;54.718;18.426;2023-05-10T12:44:55;5.97;;;1.50;;
77105;SDS011;66057;54.718;18.426;2023-05-10T12:47:22;2.95;;;1.00;;
77105;SDS011;66057;54.718;18.426;2023-05-10T12:49:47;8.10;;;1.92;;
77105;SDS011;66057;54.718;18.426;2023-05-10T12:52:13;7.65;;;1.50;;
77105;SDS011;66057;54.718;18.426;2023-05-10T12:54:38;1.88;;;1.27;;
77105;SDS011;66057;54.718;18.426;2023-05-10T12:57:04;2.15;;;1.13;;
77105;SDS011;66057;54.718;18.426;2023-05-10T12:59:30;6.82;;;1.85;;
77105;SDS011;66057;54.718;18.426;2023-05-10T13:01:56;5.00;;;1.33;;
77105;SDS011;66057;54.718;18.426;2023-05-10T13:04:22;4.43;;;1.02;;
77105;SDS011;66057;54.718;18.426;2023-05-10T13:06:48;3.22;;;1.40;;
77105;SDS011;66057;54.718;18.426;2023-05-10T13:09:13;4.03;;;1.40;;
77105;SDS011;66057;54.718;18.426;2023-05-10T13:11:39;2.60;;;1.15;;
77105;SDS011;66057;54.718;18.426;2023-05-10T13:14:05;3.47;;;0.98;;
77105;SDS011;66057;54.718;18.426;2023-05-10T13:16:31;6.68;;;1.08;;
77105;SDS011;66057;54.718;18.426;2023-05-10T13:18:56;12.63;;;2.83;;
77105;SDS011;66057;54.718;18.426;2023-05-10T13:21:22;3.50;;;1.50;;
77105;SDS011;66057;54.718;18.426;2023-05-10T13:23:49;2.05;;;1.33;;
77105;SDS011;66057;54.718;18.426;2023-05-10T13:26:15;6.03;;;1.38;;
77105;SDS011;66057;54.718;18.426;2023-05-10T13:28:41;2.05;;;1.20;;
77105;SDS011;66057;54.718;18.426;2023-05-10T13:31:07;2.13;;;1.35;;
77105;SDS011;66057;54.718;18.426;2023-05-10T13:33:32;4.38;;;1.70;;
77105;SDS011;66057;54.718;18.426;2023-05-10T13:35:58;3.55;;;1.33;;
77105;SDS011;66057;54.718;18.426;2023-05-10T13:38:24;3.70;;;1.20;;
77105;SDS011;66057;54.718;18.426;2023-05-10T13:40:50;3.22;;;1.13;;
77105;SDS011;66057;54.718;18.426;2023-05-10T13:43:20;5.28;;;1.58;;
77105;SDS011;66057;54.718;18.426;2023-05-10T13:45:46;1.52;;;0.95;;
77105;SDS011;66057;54.718;18.426;2023-05-10T13:48:12;5.32;;;1.40;;
77105;SDS011;66057;54.718;18.426;2023-05-10T13:50:38;5.70;;;1.42;;
77105;SDS011;66057;54.718;18.426;2023-05-10T13:53:03;2.03;;;1.52;;
77105;SDS011;66057;54.718;18.426;2023-05-10T13:59:10;4.90;;;1.30;;
77105;SDS011;66057;54.718;18.426;2023-05-10T14:04:02;28.48;;;5.05;;
77105;SDS011;66057;54.718;18.426;2023-05-10T14:06:29;4.22;;;1.25;;
77105;SDS011;66057;54.718;18.426;2023-05-10T14:08:54;4.30;;;1.42;;
77105;SDS011;66057;54.718;18.426;2023-05-10T14:11:20;3.83;;;1.35;;
77105;SDS011;66057;54.718;18.426;2023-05-10T14:13:46;3.80;;;1.30;;
77105;SDS011;66057;54.718;18.426;2023-05-10T14:16:11;3.70;;;1.17;;
77105;SDS011;66057;54.718;18.426;2023-05-10T14:18:39;2.10;;;1.20;;
77105;SDS011;66057;54.718;18.426;2023-05-10T14:21:05;1.80;;;0.95;;
77105;SDS011;66057;54.718;18.426;2023-05-10T14:23:31;4.07;;;1.20;;
77105;SDS011;66057;54.718;18.426;2023-05-10T14:25:57;3.53;;;1.17;;
77105;SDS011;66057;54.718;18.426;2023-05-10T14:28:22;7.40;;;1.08;;
77105;SDS011;66057;54.718;18.426;2023-05-10T14:30:50;4.97;;;1.60;;
77105;SDS011;66057;54.718;18.426;2023-05-10T14:33:16;2.88;;;1.10;;
77105;SDS011;66057;54.718;18.426;2023-05-10T14:35:42;8.40;;;1.42;;
77105;SDS011;66057;54.718;18.426;2023-05-10T14:38:10;3.25;;;1.35;;
77105;SDS011;66057;54.718;18.426;2023-05-10T14:40:36;6.00;;;1.60;;
77105;SDS011;66057;54.718;18.426;2023-05-10T14:43:01;32.45;;;4.15;;
77105;SDS011;66057;54.718;18.426;2023-05-10T14:45:27;3.63;;;1.38;;
77105;SDS011;66057;54.718;18.426;2023-05-10T14:47:53;3.70;;;1.20;;
77105;SDS011;66057;54.718;18.426;2023-05-10T14:50:19;12.85;;;2.53;;
77105;SDS011;66057;54.718;18.426;2023-05-10T14:56:10;6.82;;;1.60;;
77105;SDS011;66057;54.718;18.426;2023-05-10T14:58:35;3.33;;;1.20;;
77105;SDS011;66057;54.718;18.426;2023-05-10T15:01:01;4.53;;;1.10;;
77105;SDS011;66057;54.718;18.426;2023-05-10T15:03:27;5.13;;;1.52;;
77105;SDS011;66057;54.718;18.426;2023-05-10T15:05:53;4.20;;;1.70;;
77105;SDS011;66057;54.718;18.426;2023-05-10T15:08:21;3.47;;;1.45;;
77105;SDS011;66057;54.718;18.426;2023-05-10T15:10:47;4.78;;;1.30;;
77105;SDS011;66057;54.718;18.426;2023-05-10T15:13:14;2.83;;;1.30;;
77105;SDS011;66057;54.718;18.426;2023-05-10T15:15:40;2.13;;;1.05;;
77105;SDS011;66057;54.718;18.426;2023-05-10T15:18:05;5.15;;;1.70;;
77105;SDS011;66057;54.718;18.426;2023-05-10T15:20:31;2.67;;;1.15;;
77105;SDS011;66057;54.718;18.426;2023-05-10T15:22:57;5.03;;;1.23;;
77105;SDS011;66057;54.718;18.426;2023-05-10T15:25:23;4.30;;;1.40;;
77105;SDS011;66057;54.718;18.426;2023-05-10T15:27:48;4.28;;;1.60;;
77105;SDS011;66057;54.718;18.426;2023-05-10T15:30:14;4.75;;;1.40;;
77105;SDS011;66057;54.718;18.426;2023-05-10T15:32:40;6.85;;;1.58;;
77105;SDS011;66057;54.718;18.426;2023-05-10T15:35:07;3.50;;;1.50;;
77105;SDS011;66057;54.718;18.426;2023-05-10T15:37:33;9.20;;;1.42;;
77105;SDS011;66057;54.718;18.426;2023-05-10T15:39:59;4.28;;;1.40;;
77105;SDS011;66057;54.718;18.426;2023-05-10T15:42:29;3.47;;;1.50;;